createdAt,value
2023-04-09T05:04:47.537Z,18.63
2023-04-09T05:09:52.255Z,18.73
2023-04-09T05:15:00.570Z,18.85
2023-04-09T05:20:02.105Z,17.83
2023-04-09T05:25:11.704Z,18.90
2023-04-09T05:30:16.358Z,19.77
2023-04-09T05:35:17.954Z,19.50
2023-04-09T05:40:20.168Z,18.40
2023-04-09T05:45:21.719Z,16.95
2023-04-09T05:50:27.039Z,18.42
2023-04-09T05:55:32.382Z,18.25
2023-04-09T06:00:35.698Z,17.80
2023-04-09T06:05:37.649Z,17.40
2023-04-09T06:10:41.044Z,16.95
2023-04-09T06:15:43.101Z,19.45
2023-04-09T06:20:44.722Z,17.77
2023-04-09T06:25:46.178Z,19.95
2023-04-09T06:30:48.964Z,19.95
2023-04-09T06:35:50.577Z,22.15
2023-04-09T06:40:52.272Z,21.10
2023-04-09T06:45:53.711Z,19.75
2023-04-09T06:50:55.201Z,21.00
2023-04-09T06:55:57.219Z,19.45
2023-04-09T07:00:59.442Z,21.63
2023-04-09T07:06:01.064Z,19.73
2023-04-09T07:11:03.330Z,20.92
2023-04-09T07:16:05.202Z,19.37
2023-04-09T07:21:06.900Z,21.75
2023-04-09T07:26:08.532Z,20.20
2023-04-09T07:31:10.738Z,20.63
2023-04-09T07:36:12.493Z,19.23
2023-04-09T07:41:14.125Z,18.58
2023-04-09T07:46:20.630Z,19.42
2023-04-09T07:51:22.118Z,17.60
2023-04-09T07:56:23.578Z,16.95
2023-04-09T08:01:26.058Z,17.48
2023-04-09T08:06:27.516Z,17.38
2023-04-09T08:11:28.981Z,17.98
2023-04-09T08:16:30.560Z,17.83
2023-04-09T08:21:32.257Z,20.42
2023-04-09T08:26:33.764Z,19.92
2023-04-09T08:31:37.246Z,20.15
2023-04-09T08:36:38.772Z,20.25
2023-04-09T08:41:45.694Z,19.58
2023-04-09T08:46:47.120Z,18.52
2023-04-09T08:51:49.184Z,20.00
2023-04-09T08:56:50.649Z,19.53
2023-04-09T09:02:08.216Z,19.20
2023-04-09T09:07:09.974Z,19.30
2023-04-09T09:12:13.205Z,19.58
2023-04-09T09:17:15.274Z,19.55
2023-04-09T09:22:17.439Z,19.42
2023-04-09T09:27:40.346Z,18.65
2023-04-09T09:32:42.537Z,20.98
2023-04-09T09:37:44.114Z,19.60
2023-04-09T09:42:56.911Z,20.48
2023-04-09T09:47:58.451Z,18.00
2023-04-09T09:53:07.514Z,18.08
2023-04-09T09:58:16.689Z,17.48
2023-04-09T10:03:24.907Z,18.17
2023-04-09T10:08:28.158Z,17.00
2023-04-09T10:13:35.216Z,17.10
2023-04-09T10:18:36.877Z,17.25
2023-04-09T10:23:42.434Z,16.73
2023-04-09T10:28:43.844Z,17.05
2023-04-09T10:33:45.896Z,16.90
2023-04-09T10:38:48.160Z,19.03
2023-04-09T10:43:50.822Z,20.65
2023-04-09T10:54:35.899Z,20.33
2023-04-09T10:59:37.280Z,19.17
2023-04-09T11:05:04.474Z,19.30
2023-04-09T11:10:06.757Z,19.00
2023-04-09T11:15:16.530Z,18.80
2023-04-09T11:20:21.422Z,17.70
2023-04-09T11:25:27.132Z,18.33
2023-04-09T11:30:28.981Z,18.73
2023-04-09T11:35:30.758Z,20.27
2023-04-09T11:40:32.340Z,19.33
2023-04-09T11:45:33.847Z,19.85
2023-04-09T11:50:36.450Z,19.50
2023-04-09T12:00:41.328Z,21.45
2023-04-09T12:05:50.462Z,23.92
2023-04-09T12:10:53.843Z,21.13
2023-04-09T12:15:57.472Z,21.55
2023-04-09T12:21:01.302Z,21.80
2023-04-09T12:31:04.387Z,23.35
2023-04-09T12:36:06.321Z,22.20
2023-04-09T12:41:08.039Z,23.35
2023-04-09T12:46:09.975Z,22.93
2023-04-09T12:51:14.403Z,23.48
2023-04-09T12:56:16.007Z,22.70
2023-04-09T13:01:18.072Z,24.03
2023-04-09T13:06:19.577Z,22.60
2023-04-09T13:11:21.191Z,21.00
2023-04-09T13:16:22.796Z,22.67
2023-04-09T13:21:24.417Z,21.60
2023-04-09T13:26:25.997Z,18.77
2023-04-09T13:31:27.685Z,19.77
2023-04-09T13:36:30.173Z,18.02
2023-04-09T13:46:33.844Z,16.33
2023-04-09T13:51:35.456Z,17.17
2023-04-09T13:56:37.823Z,17.67
2023-04-09T14:06:42.356Z,17.02
2023-04-09T14:11:43.798Z,17.40
2023-04-09T14:16:46.838Z,15.55
2023-04-09T14:21:48.375Z,16.10
2023-04-09T14:26:53.004Z,15.23
2023-04-09T14:31:56.714Z,14.73
2023-04-09T14:36:58.721Z,14.48
2023-04-09T14:42:00.929Z,13.25
2023-04-09T14:47:02.608Z,12.93
2023-04-09T14:52:04.380Z,14.20
2023-04-09T14:57:06.803Z,14.20
2023-04-09T15:07:09.779Z,13.68
2023-04-09T15:12:11.263Z,15.52
2023-04-09T15:17:12.741Z,11.97
2023-04-09T15:22:14.246Z,11.37
2023-04-09T15:27:15.857Z,9.77
2023-04-09T15:32:17.476Z,9.88
2023-04-09T15:37:18.895Z,9.15
2023-04-09T15:42:22.640Z,9.70
2023-04-09T15:47:24.472Z,10.20
2023-04-09T15:52:26.652Z,11.03
2023-04-09T15:57:28.742Z,9.43
2023-04-09T16:02:30.329Z,9.35
2023-04-09T16:07:31.867Z,9.67
2023-04-09T16:12:33.290Z,9.60
2023-04-09T16:17:40.532Z,11.45
2023-04-09T16:22:42.857Z,10.40
2023-04-09T16:27:44.305Z,10.17
2023-04-09T16:32:45.794Z,11.82
2023-04-09T16:37:47.380Z,12.05
2023-04-09T16:42:48.816Z,12.52
2023-04-09T16:47:53.991Z,11.40
2023-04-09T16:52:55.583Z,11.75
2023-04-09T16:57:57.220Z,12.73
2023-04-09T17:02:58.861Z,13.18
2023-04-09T17:08:02.024Z,12.57
2023-04-09T17:13:03.643Z,18.77
2023-04-09T17:18:05.238Z,15.30
2023-04-09T17:23:07.201Z,15.10
2023-04-09T17:28:09.098Z,13.70
2023-04-09T17:33:12.104Z,13.47
2023-04-09T17:38:20.285Z,12.40
2023-04-09T17:43:21.801Z,12.75
2023-04-09T17:48:23.283Z,13.48
2023-04-09T17:53:24.751Z,17.73
2023-04-09T17:58:26.913Z,16.92
2023-04-09T18:03:28.506Z,17.00
2023-04-09T18:08:30.244Z,14.60
2023-04-09T18:13:31.646Z,14.20
2023-04-09T18:18:33.062Z,15.23
2023-04-09T18:23:34.712Z,16.23
2023-04-09T18:28:36.533Z,17.10
2023-04-09T18:33:37.956Z,20.27
2023-04-09T18:38:39.510Z,19.75
2023-04-09T18:43:41.190Z,20.45
2023-04-09T18:48:43.337Z,18.88
2023-04-09T18:53:45.052Z,17.50
2023-04-09T18:58:51.785Z,20.35
2023-04-09T19:03:53.805Z,22.27
2023-04-09T19:08:58.101Z,21.43
2023-04-09T19:13:59.606Z,20.25
2023-04-09T19:19:01.107Z,19.30
2023-04-09T19:24:04.908Z,20.70
2023-04-09T19:29:07.723Z,24.88
2023-04-09T19:34:10.907Z,23.10
2023-04-09T19:39:12.382Z,23.52
2023-04-09T19:44:16.793Z,21.75
2023-04-09T19:49:18.226Z,19.90
2023-04-09T19:54:19.750Z,18.30
2023-04-09T19:59:21.330Z,17.58
2023-04-09T20:04:25.766Z,17.02
2023-04-09T20:09:28.972Z,33.47
2023-04-09T20:14:31.336Z,25.33
2023-04-09T20:19:32.892Z,19.65
2023-04-09T20:24:35.234Z,15.57
2023-04-09T20:29:37.100Z,15.55
2023-04-09T20:34:38.736Z,15.45
2023-04-09T20:39:40.693Z,14.27
2023-04-09T20:44:43.141Z,14.32
2023-04-09T20:49:46.353Z,15.35
2023-04-09T20:54:47.876Z,15.82
2023-04-09T20:59:53.569Z,17.13
2023-04-09T21:04:56.342Z,22.42
2023-04-09T21:09:57.935Z,17.92
2023-04-09T21:15:01.357Z,15.95
2023-04-09T21:20:02.887Z,15.40
2023-04-09T21:25:04.814Z,15.05
2023-04-09T21:30:06.976Z,15.55
2023-04-09T21:35:08.440Z,15.87
2023-04-09T21:40:10.212Z,16.73
2023-04-09T21:45:11.793Z,15.95
2023-04-09T21:50:13.655Z,15.82
2023-04-09T21:55:15.293Z,15.95
